createdAt,value
2023-07-22T00:00:57.196Z,100442.81
2023-07-22T00:03:25.208Z,100444.16
2023-07-22T00:06:09.996Z,100445.16
2023-07-22T00:08:38.167Z,100451.69
2023-07-22T00:11:07.868Z,100449.38
2023-07-22T00:13:38.064Z,100447.19
2023-07-22T00:16:08.997Z,100447.72
2023-07-22T00:18:36.550Z,100450.59
2023-07-22T00:21:03.439Z,100444.19
2023-07-22T00:23:31.939Z,100448.56
2023-07-22T00:25:58.429Z,100440.00
2023-07-22T00:28:24.909Z,100447.53
2023-07-22T00:30:52.642Z,100445.88
2023-07-22T00:33:19.203Z,100444.69
2023-07-22T00:35:51.491Z,100447.88
2023-07-22T00:38:19.016Z,100454.75
2023-07-22T00:40:46.075Z,100454.94
2023-07-22T00:43:13.958Z,100450.41
2023-07-22T00:45:40.428Z,100448.56
2023-07-22T00:48:09.420Z,100451.06
2023-07-22T00:50:36.376Z,100449.75
2023-07-22T00:53:03.092Z,100449.75
2023-07-22T00:55:30.605Z,100445.72
2023-07-22T00:57:57.144Z,100458.44
2023-07-22T01:00:23.634Z,100462.13
2023-07-22T01:02:50.552Z,100460.13
2023-07-22T01:09:08.220Z,100459.13
2023-07-22T01:11:34.685Z,100453.25
2023-07-22T01:14:02.147Z,100449.41
2023-07-22T01:16:29.379Z,100453.91
2023-07-22T01:18:56.382Z,100455.44
2023-07-22T01:21:26.284Z,100451.06
2023-07-22T01:23:54.443Z,100450.41
2023-07-22T01:26:21.034Z,100459.44
2023-07-22T01:28:47.789Z,100464.00
2023-07-22T01:31:16.415Z,100463.50
2023-07-22T01:33:42.979Z,100463.50
2023-07-22T01:36:09.509Z,100455.09
2023-07-22T01:38:37.592Z,100454.75
2023-07-22T01:41:04.078Z,100455.44
2023-07-22T01:43:30.664Z,100451.75
2023-07-22T01:45:57.211Z,100450.41
2023-07-22T01:48:24.671Z,100446.38
2023-07-22T01:50:51.186Z,100458.75
2023-07-22T01:53:17.667Z,100464.47
2023-07-22T01:55:45.244Z,100472.22
2023-07-22T01:58:12.143Z,100472.53
2023-07-22T02:00:38.625Z,100477.72
2023-07-22T02:03:05.349Z,100485.44
2023-07-22T02:05:32.062Z,100490.47
2023-07-22T02:07:58.618Z,100482.41
2023-07-22T02:10:25.159Z,100479.06
2023-07-22T02:12:51.691Z,100482.59
2023-07-22T02:15:18.223Z,100489.97
2023-07-22T02:17:44.816Z,100493.50
2023-07-22T02:20:11.836Z,100497.34
2023-07-22T02:22:38.368Z,100497.00
2023-07-22T02:25:05.461Z,100498.00
2023-07-22T02:27:31.936Z,100503.38
2023-07-22T02:29:58.594Z,100495.66
2023-07-22T02:32:25.091Z,100509.72
2023-07-22T02:34:51.567Z,100513.56
2023-07-22T02:37:18.889Z,100509.34
2023-07-22T02:39:45.817Z,100512.03
2023-07-22T02:42:12.465Z,100507.66
2023-07-22T02:44:38.959Z,100516.72
2023-07-22T02:47:05.543Z,100512.84
2023-07-22T02:49:32.095Z,100518.72
2023-07-22T02:51:58.544Z,100524.09
2023-07-22T02:54:24.973Z,100532.44
2023-07-22T02:56:51.490Z,100529.78
2023-07-22T02:59:19.015Z,100533.59
2023-07-22T03:01:45.763Z,100536.28
2023-07-22T03:04:13.635Z,100534.63
2023-07-22T03:06:43.614Z,100535.09
2023-07-22T03:09:13.941Z,100537.09
2023-07-22T03:11:40.428Z,100529.91
2023-07-22T03:14:06.912Z,100539.09
2023-07-22T03:16:33.439Z,100533.72
2023-07-22T03:18:59.982Z,100533.59
2023-07-22T03:21:26.497Z,100538.59
2023-07-22T03:23:52.953Z,100542.28
2023-07-22T03:26:21.189Z,100539.41
2023-07-22T03:28:47.714Z,100542.59
2023-07-22T03:31:14.261Z,100545.66
2023-07-22T03:33:40.833Z,100551.84
2023-07-22T03:36:07.992Z,100556.88
2023-07-22T03:38:35.272Z,100559.38
2023-07-22T03:41:01.990Z,100561.38
2023-07-22T03:43:28.681Z,100558.88
2023-07-22T03:45:55.199Z,100566.91
2023-07-22T03:48:21.813Z,100564.75
2023-07-22T03:50:50.403Z,100565.78
2023-07-22T03:53:18.060Z,100572.63
2023-07-22T03:55:44.537Z,100569.94
2023-07-22T03:58:11.327Z,100575.97
2023-07-22T04:00:39.507Z,100573.13
2023-07-22T04:03:06.098Z,100577.50
2023-07-22T04:05:32.759Z,100572.34
2023-07-22T04:07:59.218Z,100582.19
2023-07-22T04:10:25.698Z,100578.34
2023-07-22T04:12:52.271Z,100581.03
2023-07-22T04:15:21.176Z,100585.69
2023-07-22T04:17:48.111Z,100588.03
2023-07-22T04:20:14.704Z,100590.41
2023-07-22T04:22:42.865Z,100591.78
2023-07-22T04:25:10.190Z,100601.00
2023-07-22T04:27:36.832Z,100601.00
2023-07-22T04:30:03.950Z,100597.97
2023-07-22T04:32:30.627Z,100596.47
2023-07-22T04:34:57.199Z,100596.16
2023-07-22T04:37:23.701Z,100596.81
2023-07-22T04:39:51.175Z,100597.19
2023-07-22T04:42:17.875Z,100593.84
2023-07-22T04:44:45.279Z,100604.28
2023-07-22T04:47:11.992Z,100600.63
2023-07-22T04:49:39.167Z,100604.00
2023-07-22T04:52:06.390Z,100610.34
2023-07-22T04:54:32.879Z,100610.03
2023-07-22T04:57:00.910Z,100609.19
2023-07-22T04:59:27.433Z,100607.88
2023-07-22T05:01:53.955Z,100611.22
2023-07-22T05:04:20.478Z,100614.59
2023-07-22T05:06:46.917Z,100617.28
2023-07-22T05:09:13.654Z,100628.03
2023-07-22T05:11:40.125Z,100631.22
2023-07-22T05:14:06.581Z,100632.25
2023-07-22T05:16:33.094Z,100624.84
2023-07-22T05:18:59.563Z,100633.06
2023-07-22T05:21:26.087Z,100632.09
2023-07-22T05:23:52.586Z,100636.63
2023-07-22T05:26:19.218Z,100640.31
2023-07-22T05:28:45.666Z,100642.84
2023-07-22T05:31:13.343Z,100644.03
2023-07-22T05:33:39.847Z,100640.31
2023-07-22T05:36:06.478Z,100647.41
2023-07-22T05:38:32.966Z,100652.06
2023-07-22T05:40:59.603Z,100654.78
2023-07-22T05:43:26.110Z,100660.84
2023-07-22T05:45:52.587Z,100662.69
2023-07-22T05:48:22.201Z,100668.88
2023-07-22T05:50:49.073Z,100667.53
2023-07-22T05:53:15.665Z,100670.38
2023-07-22T05:55:42.132Z,100670.56
2023-07-22T05:58:16.540Z,100670.28
2023-07-22T06:00:43.011Z,100677.25
2023-07-22T06:03:10.197Z,100675.81
2023-07-22T06:05:38.992Z,100676.47
2023-07-22T06:08:06.216Z,100673.25
2023-07-22T06:10:35.638Z,100681.66
2023-07-22T06:13:02.212Z,100684.53
2023-07-22T06:15:28.715Z,100686.53
2023-07-22T06:17:55.279Z,100694.75
2023-07-22T06:20:21.876Z,100688.06
2023-07-22T06:22:48.419Z,100695.44
2023-07-22T06:25:16.550Z,100695.09
2023-07-22T06:27:43.063Z,100696.44
2023-07-22T06:30:10.090Z,100704.69
2023-07-22T06:32:38.477Z,100695.41
2023-07-22T06:35:08.547Z,100709.16
2023-07-22T06:37:35.221Z,100708.50
2023-07-22T06:40:02.877Z,100705.09
2023-07-22T06:42:29.432Z,100709.78
2023-07-22T06:44:56.153Z,100705.53
2023-07-22T06:47:22.753Z,100706.72
2023-07-22T06:49:49.372Z,100706.69
2023-07-22T06:52:15.931Z,100710.94
2023-07-22T06:54:42.539Z,100719.50
2023-07-22T06:57:11.311Z,100711.09
2023-07-22T06:59:37.829Z,100720.13
2023-07-22T07:02:08.938Z,100722.88
2023-07-22T07:04:36.434Z,100722.16
2023-07-22T07:07:03.861Z,100720.56
2023-07-22T07:09:30.381Z,100714.63
2023-07-22T07:11:58.253Z,100713.00
2023-07-22T07:14:25.902Z,100720.44
2023-07-22T07:16:52.422Z,100722.41
2023-07-22T07:19:19.329Z,100716.34
2023-07-22T07:21:45.839Z,100721.97
2023-07-22T07:24:12.357Z,100726.53
2023-07-22T07:26:39.685Z,100727.13
2023-07-22T07:29:06.205Z,100726.59
2023-07-22T07:31:33.714Z,100731.03
2023-07-22T07:34:00.463Z,100738.63
2023-07-22T07:36:27.304Z,100733.28
2023-07-22T07:38:54.114Z,100729.84
2023-07-22T07:41:21.456Z,100739.03
2023-07-22T07:43:48.134Z,100741.94
2023-07-22T07:46:22.928Z,100749.06
2023-07-22T07:48:52.536Z,100750.34
2023-07-22T07:51:20.508Z,100749.56
2023-07-22T07:53:48.812Z,100757.13
2023-07-22T07:56:17.089Z,100756.16
2023-07-22T07:58:45.323Z,100760.69
2023-07-22T08:01:12.986Z,100760.97
2023-07-22T08:03:41.167Z,100765.97
2023-07-22T08:06:08.774Z,100763.69
2023-07-22T08:08:35.985Z,100762.88
2023-07-22T08:11:04.549Z,100764.84
2023-07-22T08:13:32.671Z,100771.06
2023-07-22T08:15:59.678Z,100779.09
2023-07-22T08:18:27.800Z,100771.78
2023-07-22T08:21:00.179Z,100770.16
2023-07-22T08:23:26.909Z,100775.44
2023-07-22T08:25:53.456Z,100772.63
2023-07-22T08:28:20.011Z,100776.91
2023-07-22T08:30:46.711Z,100772.03
2023-07-22T08:33:15.218Z,100778.94
2023-07-22T08:35:44.152Z,100783.19
2023-07-22T08:38:10.727Z,100780.22
2023-07-22T08:40:38.715Z,100781.47
2023-07-22T08:43:06.738Z,100779.59
2023-07-22T08:45:37.422Z,100778.75
2023-07-22T08:48:08.947Z,100784.63
2023-07-22T08:50:45.666Z,100781.56
2023-07-22T08:53:13.704Z,100786.53
2023-07-22T08:55:43.416Z,100795.47
2023-07-22T08:58:10.866Z,100790.31
2023-07-22T09:00:39.030Z,100798.22
2023-07-22T09:03:06.386Z,100796.56
2023-07-22T09:05:34.592Z,100789.53
2023-07-22T09:08:05.453Z,100793.69
2023-07-22T09:10:32.980Z,100794.97
2023-07-22T09:13:01.328Z,100787.44
2023-07-22T09:15:28.767Z,100790.91
2023-07-22T09:17:55.702Z,100792.16
2023-07-22T09:20:22.458Z,100785.50
2023-07-22T09:22:59.501Z,100795.78
2023-07-22T09:25:34.649Z,100781.84
2023-07-22T09:28:01.678Z,100785.53
2023-07-22T09:30:46.871Z,100779.22
2023-07-22T09:33:26.553Z,100777.56
2023-07-22T09:35:56.040Z,100782.41
2023-07-22T09:38:26.417Z,100779.78
2023-07-22T09:40:53.581Z,100777.63
2023-07-22T09:43:20.384Z,100789.16
2023-07-22T09:45:50.871Z,100777.09
2023-07-22T09:48:17.707Z,100769.69
2023-07-22T09:50:44.617Z,100774.81
2023-07-22T09:53:16.712Z,100769.84
2023-07-22T09:55:43.230Z,100785.19
2023-07-22T09:58:10.696Z,100778.91
2023-07-22T10:00:38.073Z,100786.63
2023-07-22T10:03:10.297Z,100785.41
2023-07-22T10:05:39.648Z,100793.06
2023-07-22T10:08:38.608Z,100789.34
2023-07-22T10:11:08.981Z,100792.97
2023-07-22T10:13:36.453Z,100785.50
2023-07-22T10:16:03.741Z,100786.22
2023-07-22T10:18:32.871Z,100782.72
2023-07-22T10:21:00.774Z,100780.97
2023-07-22T10:23:28.004Z,100786.44
2023-07-22T10:25:55.758Z,100782.59
2023-07-22T10:28:24.044Z,100774.47
2023-07-22T10:30:52.792Z,100772.88
2023-07-22T10:33:19.403Z,100781.66
2023-07-22T10:36:04.658Z,100786.78
2023-07-22T10:38:31.393Z,100774.66
2023-07-22T10:40:58.110Z,100783.03
2023-07-22T10:43:33.118Z,100782.03
2023-07-22T10:46:07.128Z,100770.34
2023-07-22T10:48:38.689Z,100770.00
2023-07-22T10:51:11.269Z,100770.75
2023-07-22T10:53:51.296Z,100763.34
2023-07-22T10:56:21.375Z,100774.03
2023-07-22T10:58:48.025Z,100778.00
2023-07-22T11:01:29.894Z,100769.31
2023-07-22T11:04:15.838Z,100770.88
2023-07-22T11:06:45.153Z,100772.25
2023-07-22T11:09:36.203Z,100768.28
2023-07-22T11:12:14.013Z,100777.00
2023-07-22T11:14:49.673Z,100767.88
2023-07-22T11:17:18.650Z,100765.47
2023-07-22T11:19:46.278Z,100773.72
2023-07-22T11:22:13.371Z,100763.25
2023-07-22T11:24:40.003Z,100761.50
2023-07-22T11:27:09.464Z,100767.16
2023-07-22T11:29:36.822Z,100767.84
2023-07-22T11:32:04.360Z,100768.09
2023-07-22T11:34:32.938Z,100764.97
2023-07-22T11:36:59.682Z,100768.84
2023-07-22T11:39:28.015Z,100763.91
2023-07-22T11:41:54.746Z,100767.09
2023-07-22T11:44:23.880Z,100768.22
2023-07-22T11:46:57.498Z,100767.63
2023-07-22T11:49:29.835Z,100754.59
2023-07-22T11:52:20.137Z,100756.41
2023-07-22T11:54:48.077Z,100759.41
2023-07-22T11:57:16.947Z,100754.00
2023-07-22T11:59:51.239Z,100758.22
2023-07-22T12:02:20.767Z,100756.63
2023-07-22T12:04:54.687Z,100762.84
2023-07-22T12:07:32.969Z,100762.84
2023-07-22T12:10:02.099Z,100757.59
2023-07-22T12:12:42.880Z,100765.44
2023-07-22T12:15:14.505Z,100762.97
2023-07-22T12:17:45.631Z,100748.34
2023-07-22T12:20:12.574Z,100749.38
2023-07-22T12:22:39.088Z,100747.50
2023-07-22T12:25:07.812Z,100759.38
2023-07-22T12:27:34.273Z,100750.56
2023-07-22T12:30:00.811Z,100744.63
2023-07-22T12:32:27.346Z,100747.25
2023-07-22T12:34:53.917Z,100737.75
2023-07-22T12:37:20.606Z,100747.19
2023-07-22T12:39:47.116Z,100737.69
2023-07-22T12:42:13.620Z,100740.38
2023-07-22T12:44:40.145Z,100741.00
2023-07-22T12:47:07.066Z,100727.72
2023-07-22T12:49:33.540Z,100730.84
2023-07-22T12:52:04.926Z,100739.44
2023-07-22T12:54:34.508Z,100730.25
2023-07-22T12:57:01.025Z,100738.03
2023-07-22T12:59:27.591Z,100739.53
2023-07-22T13:01:54.893Z,100741.59
2023-07-22T13:04:21.442Z,100739.69
2023-07-22T13:06:48.035Z,100737.84
2023-07-22T13:09:16.895Z,100735.56
2023-07-22T13:11:43.418Z,100734.97
2023-07-22T13:14:13.209Z,100727.34
2023-07-22T13:16:39.662Z,100730.28
2023-07-22T13:19:06.352Z,100729.56
2023-07-22T13:21:32.855Z,100729.88
2023-07-22T13:23:59.406Z,100733.06
2023-07-22T13:26:28.294Z,100738.75
2023-07-22T13:28:54.779Z,100736.38
2023-07-22T13:31:21.487Z,100737.03
2023-07-22T13:33:48.030Z,100738.38
2023-07-22T13:36:15.417Z,100725.69
2023-07-22T13:38:41.922Z,100726.50
2023-07-22T13:41:09.940Z,100729.28
2023-07-22T13:43:36.404Z,100726.53
2023-07-22T13:46:02.918Z,100732.59
2023-07-22T13:48:29.549Z,100725.47
2023-07-22T13:50:56.060Z,100722.47
2023-07-22T13:53:22.584Z,100725.03
2023-07-22T13:55:51.183Z,100715.50
2023-07-22T13:58:20.381Z,100716.00
2023-07-22T14:00:46.983Z,100719.09
2023-07-22T14:03:14.373Z,100711.78
2023-07-22T14:05:40.891Z,100717.06
2023-07-22T14:08:07.404Z,100714.75
2023-07-22T14:10:34.005Z,100710.97
2023-07-22T14:13:00.492Z,100702.38
2023-07-22T14:15:26.947Z,100710.94
2023-07-22T14:17:53.532Z,100698.59
2023-07-22T14:20:20.698Z,100709.78
2023-07-22T14:22:47.271Z,100710.38
2023-07-22T14:25:13.723Z,100710.56
2023-07-22T14:27:41.292Z,100709.06
2023-07-22T14:30:08.984Z,100704.31
2023-07-22T14:32:37.944Z,100708.94
2023-07-22T14:35:05.448Z,100710.19
2023-07-22T14:37:32.023Z,100696.34
2023-07-22T14:39:58.667Z,100707.41
2023-07-22T14:42:25.118Z,100708.44
2023-07-22T14:44:51.592Z,100701.72
2023-07-22T14:47:18.080Z,100700.09
2023-07-22T14:49:44.677Z,100699.47
2023-07-22T14:52:11.199Z,100703.09
2023-07-22T14:54:37.663Z,100693.72
2023-07-22T14:57:04.454Z,100701.22
2023-07-22T14:59:31.703Z,100701.66
2023-07-22T15:01:59.146Z,100696.66
2023-07-22T15:04:25.711Z,100691.16
2023-07-22T15:06:53.096Z,100696.00
2023-07-22T15:09:19.602Z,100690.56
2023-07-22T15:11:46.083Z,100689.28
2023-07-22T15:14:12.685Z,100694.19
2023-07-22T15:16:39.264Z,100701.06
2023-07-22T15:19:05.748Z,100695.69
2023-07-22T15:21:32.257Z,100703.66
2023-07-22T15:24:00.521Z,100702.41
2023-07-22T15:26:27.027Z,100698.03
2023-07-22T15:28:54.276Z,100696.97
2023-07-22T15:31:22.269Z,100690.88
2023-07-22T15:33:49.829Z,100689.03
2023-07-22T15:36:16.837Z,100687.50
2023-07-22T15:38:43.326Z,100683.50
2023-07-22T15:41:10.538Z,100686.34
2023-07-22T15:43:37.888Z,100683.25
2023-07-22T15:46:04.490Z,100681.41
2023-07-22T15:48:31.119Z,100677.69
2023-07-22T15:50:57.679Z,100673.16
2023-07-22T15:53:25.148Z,100673.59
2023-07-22T15:55:51.667Z,100667.94
2023-07-22T15:58:20.602Z,100672.53
2023-07-22T16:00:47.109Z,100671.47
2023-07-22T16:03:15.173Z,100673.56
2023-07-22T16:05:42.366Z,100673.31
2023-07-22T16:08:09.010Z,100662.47
2023-07-22T16:10:35.861Z,100669.22
2023-07-22T16:13:02.846Z,100669.84
2023-07-22T16:15:31.918Z,100666.94
2023-07-22T16:17:59.098Z,100665.25
2023-07-22T16:20:25.613Z,100661.06
2023-07-22T16:22:52.082Z,100667.97
2023-07-22T16:25:18.580Z,100668.59
2023-07-22T16:27:45.098Z,100672.34
2023-07-22T16:30:12.445Z,100662.56
2023-07-22T16:32:39.809Z,100675.06
2023-07-22T16:35:07.540Z,100668.16
2023-07-22T16:37:34.464Z,100677.38
2023-07-22T16:40:03.438Z,100674.84
2023-07-22T16:42:30.026Z,100671.09
2023-07-22T16:44:56.643Z,100674.44
2023-07-22T16:47:23.244Z,100664.84
2023-07-22T16:49:49.760Z,100678.63
2023-07-22T16:52:16.731Z,100666.28
2023-07-22T16:54:43.197Z,100666.69
2023-07-22T16:57:09.781Z,100656.47
2023-07-22T16:59:36.276Z,100656.88
2023-07-22T17:02:02.797Z,100651.47
2023-07-22T17:04:29.343Z,100655.66
2023-07-22T17:06:55.801Z,100656.47
2023-07-22T17:09:23.375Z,100660.25
2023-07-22T17:11:50.483Z,100657.78
2023-07-22T17:14:17.020Z,100649.81
2023-07-22T17:16:44.366Z,100653.38
2023-07-22T17:19:10.855Z,100651.09
2023-07-22T17:21:37.370Z,100645.66
2023-07-22T17:24:04.204Z,100648.56
2023-07-22T17:26:30.682Z,100647.34
2023-07-22T17:28:57.247Z,100650.47
2023-07-22T17:31:23.823Z,100646.28
2023-07-22T17:33:50.394Z,100637.72
2023-07-22T17:36:16.876Z,100643.97
2023-07-22T17:38:43.336Z,100644.19
2023-07-22T17:41:09.875Z,100646.50
2023-07-22T17:43:36.375Z,100647.09
2023-07-22T17:46:03.885Z,100641.91
2023-07-22T17:48:30.406Z,100639.38
2023-07-22T17:50:56.894Z,100637.72
2023-07-22T17:53:23.664Z,100626.25
2023-07-22T17:55:50.420Z,100630.63
2023-07-22T17:58:17.733Z,100623.97
2023-07-22T18:00:44.318Z,100623.53
2023-07-22T18:03:10.973Z,100626.88
2023-07-22T18:05:37.751Z,100619.38
2023-07-22T18:08:05.259Z,100613.06
2023-07-22T18:10:31.739Z,100613.88
2023-07-22T18:12:58.258Z,100618.06
2023-07-22T18:15:24.730Z,100620.75
2023-07-22T18:17:51.269Z,100613.44
2023-07-22T18:20:17.842Z,100613.66
2023-07-22T18:22:44.355Z,100622.59
2023-07-22T18:25:10.820Z,100620.53
2023-07-22T18:27:37.299Z,100630.94
2023-07-22T18:30:04.191Z,100631.53
2023-07-22T18:32:31.115Z,100634.25
2023-07-22T18:35:00.481Z,100621.09
2023-07-22T18:37:30.207Z,100619.19
2023-07-22T18:39:57.214Z,100624.19
2023-07-22T18:42:24.062Z,100624.81
2023-07-22T18:44:50.637Z,100622.91
2023-07-22T18:47:18.177Z,100614.53
2023-07-22T18:49:45.916Z,100621.59
2023-07-22T18:52:12.441Z,100615.72
2023-07-22T18:54:39.790Z,100608.84
2023-07-22T18:57:06.693Z,100614.66
2023-07-22T18:59:33.161Z,100611.91
2023-07-22T19:02:01.040Z,100611.88
2023-07-22T19:04:27.588Z,100614.38
2023-07-22T19:06:54.815Z,100613.94
2023-07-22T19:09:21.622Z,100610.97
2023-07-22T19:11:48.188Z,100612.41
2023-07-22T19:14:15.133Z,100610.50
2023-07-22T19:16:50.905Z,100607.56
2023-07-22T19:19:17.752Z,100611.50
2023-07-22T19:21:44.274Z,100612.09
2023-07-22T19:24:11.539Z,100609.78
2023-07-22T19:26:38.051Z,100610.16
2023-07-22T19:29:05.302Z,100614.69
2023-07-22T19:31:31.812Z,100614.03
2023-07-22T19:33:59.225Z,100625.47
2023-07-22T19:36:28.910Z,100629.22
2023-07-22T19:38:55.429Z,100625.19
2023-07-22T19:41:22.047Z,100618.13
2023-07-22T19:43:48.815Z,100621.84
2023-07-22T19:46:16.830Z,100617.88
2023-07-22T19:48:44.377Z,100616.78
2023-07-22T19:51:14.812Z,100608.03
2023-07-22T19:53:42.842Z,100617.59
2023-07-22T19:56:10.306Z,100617.16
2023-07-22T19:58:37.656Z,100614.22
2023-07-22T20:01:05.697Z,100606.66
2023-07-22T20:03:36.864Z,100608.31
2023-07-22T20:06:05.839Z,100608.47
2023-07-22T20:08:32.451Z,100602.91
2023-07-22T20:10:59.739Z,100602.38
2023-07-22T20:13:26.402Z,100605.72
2023-07-22T20:15:53.094Z,100603.81
2023-07-22T20:18:19.711Z,100604.81
2023-07-22T20:20:46.308Z,100610.88
2023-07-22T20:23:12.859Z,100601.28
2023-07-22T20:25:40.979Z,100601.50
2023-07-22T20:28:08.411Z,100606.06
2023-07-22T20:30:35.264Z,100607.28
2023-07-22T20:33:01.926Z,100606.25
2023-07-22T20:35:28.794Z,100604.56
2023-07-22T20:37:55.599Z,100597.50
2023-07-22T20:40:22.267Z,100599.75
2023-07-22T20:42:48.785Z,100596.41
2023-07-22T20:45:16.071Z,100594.09
2023-07-22T20:47:42.684Z,100593.69
2023-07-22T20:50:12.604Z,100582.06
2023-07-22T20:52:39.196Z,100585.97
2023-07-22T20:55:07.618Z,100583.88
2023-07-22T20:57:35.532Z,100586.94
2023-07-22T21:00:03.407Z,100575.47
2023-07-22T21:02:30.018Z,100576.06
2023-07-22T21:04:56.640Z,100577.28
2023-07-22T21:07:23.119Z,100573.97
2023-07-22T21:09:49.692Z,100577.66
2023-07-22T21:12:16.244Z,100580.13
2023-07-22T21:14:42.799Z,100581.16
2023-07-22T21:17:09.554Z,100582.81
2023-07-22T21:19:36.017Z,100577.88
2023-07-22T21:22:04.627Z,100574.13
2023-07-22T21:24:31.719Z,100584.75
2023-07-22T21:26:58.419Z,100578.31
2023-07-22T21:29:25.159Z,100572.72
2023-07-22T21:31:52.537Z,100566.47
2023-07-22T21:34:19.104Z,100563.59
2023-07-22T21:36:45.653Z,100567.13
2023-07-22T21:39:12.189Z,100560.44
2023-07-22T21:41:38.734Z,100569.56
2023-07-22T21:44:05.311Z,100567.91
2023-07-22T21:46:31.817Z,100563.91
2023-07-22T21:48:58.321Z,100565.13
2023-07-22T21:51:25.697Z,100559.44
2023-07-22T21:53:52.725Z,100560.44
2023-07-22T21:56:19.263Z,100550.91
2023-07-22T21:58:45.832Z,100547.09
2023-07-22T22:01:12.629Z,100551.81
2023-07-22T22:03:39.175Z,100556.78
2023-07-22T22:06:06.615Z,100551.28
2023-07-22T22:08:33.157Z,100552.97
2023-07-22T22:11:04.867Z,100553.63
2023-07-22T22:13:33.760Z,100550.84
2023-07-22T22:16:01.150Z,100557.28
2023-07-22T22:18:28.372Z,100556.06
2023-07-22T22:20:54.899Z,100549.16
2023-07-22T22:23:21.424Z,100554.56
2023-07-22T22:25:47.984Z,100548.34
2023-07-22T22:28:14.455Z,100543.59
2023-07-22T22:30:40.973Z,100543.59
2023-07-22T22:33:07.481Z,100544.44
2023-07-22T22:35:33.932Z,100541.34
2023-07-22T22:38:00.439Z,100540.03
2023-07-22T22:40:27.095Z,100530.28
2023-07-22T22:42:53.605Z,100528.41
2023-07-22T22:45:20.210Z,100527.78
2023-07-22T22:47:48.045Z,100532.16
2023-07-22T22:50:14.623Z,100531.09
2023-07-22T22:52:47.798Z,100527.56
2023-07-22T22:55:15.126Z,100526.53
2023-07-22T22:57:41.913Z,100523.22
2023-07-22T23:00:09.157Z,100522.94
2023-07-22T23:02:36.633Z,100517.91
2023-07-22T23:05:03.456Z,100511.22
2023-07-22T23:07:31.561Z,100514.13
2023-07-22T23:09:58.464Z,100511.22
2023-07-22T23:12:25.155Z,100513.09
2023-07-22T23:14:53.870Z,100512.06
2023-07-22T23:17:20.625Z,100504.16
2023-07-22T23:19:47.099Z,100511.06
2023-07-22T23:22:14.338Z,100507.91
2023-07-22T23:24:40.837Z,100506.88
2023-07-22T23:27:10.181Z,100507.25
2023-07-22T23:29:36.694Z,100505.75
2023-07-22T23:32:03.258Z,100503.72
2023-07-22T23:34:30.352Z,100496.13
2023-07-22T23:36:56.833Z,100501.06
2023-07-22T23:39:24.078Z,100490.06
2023-07-22T23:41:50.551Z,100488.50
2023-07-22T23:44:17.067Z,100489.97
2023-07-22T23:46:43.557Z,100495.13
2023-07-22T23:49:10.057Z,100487.47
2023-07-22T23:51:36.548Z,100488.13
2023-07-22T23:54:03.501Z,100476.78
2023-07-22T23:56:30.117Z,100484.63
2023-07-22T23:58:57.343Z,100490.66
